Time;durP1;ratioP1;P1;durP2;ratioP2;P2;SDS_P1;SDS_P2;PMS_P1;PMS_P2;Temp;Humidity;BMP_temperature;BMP_pressure;BME280_temperature;BME280_humidity;BME280_pressure;Samples;Min_cycle;Max_cycle;Signal;HPM_P1;HPM_P2
2022/04/13 00:00:27;;;;;;;44.70;24.90;;;;;;;7.02;49.49;99566.66;233206;1217;139189;-63
2022/04/13 00:05:39;;;;;;;40.50;24.30;;;;;;;6.98;49.49;99566.30;233296;1217;139023;-61
2022/04/13 00:10:43;;;;;;;45.10;25.00;;;;;;;6.96;49.53;99568.34;233331;1217;140967;-63
2022/04/13 00:15:46;;;;;;;38.60;22.60;;;;;;;6.94;49.81;99576.52;233287;1217;139151;-63
2022/04/13 00:20:49;;;;;;;41.10;23.40;;;;;;;6.91;49.46;99574.69;233218;1217;142083;-62
2022/04/13 00:25:52;;;;;;;39.30;22.40;;;;;;;6.90;49.72;99574.21;233333;1217;138927;-63
2022/04/13 00:30:55;;;;;;;41.20;23.10;;;;;;;6.88;49.75;99574.26;233186;1218;139535;-63
2022/04/13 00:35:58;;;;;;;39.00;21.80;;;;;;;6.87;49.66;99574.48;233294;1217;140746;-64
2022/04/13 00:41:01;;;;;;;38.50;22.40;;;;;;;6.85;49.57;99577.04;233357;1217;139833;-64
2022/04/13 00:46:04;;;;;;;38.30;20.90;;;;;;;6.82;49.72;99576.79;233194;1217;139517;-64
2022/04/13 00:51:08;;;;;;;37.40;20.90;;;;;;;6.80;49.74;99578.80;233282;1217;140235;-64
2022/04/13 00:56:13;;;;;;;36.50;19.80;;;;;;;6.76;49.65;99577.55;233386;1217;139272;-62
2022/04/13 01:01:16;;;;;;;32.80;19.70;;;;;;;6.72;49.40;99577.89;233322;1218;139858;-63
2022/04/13 01:06:20;;;;;;;34.80;20.60;;;;;;;6.68;49.73;99573.45;232719;1218;138876;-61
2022/04/13 01:11:24;;;;;;;32.30;18.70;;;;;;;6.64;49.90;99573.44;233150;1219;139753;-63
2022/04/13 01:16:27;;;;;;;32.30;18.80;;;;;;;6.61;49.95;99571.95;233371;1217;139476;-61
2022/04/13 01:21:47;;;;;;;33.40;18.70;;;;;;;6.56;49.81;99573.20;233228;1217;139302;-60
2022/04/13 01:26:51;;;;;;;29.70;18.30;;;;;;;6.50;50.00;99563.54;233334;1217;140277;-60
2022/04/13 01:31:55;;;;;;;32.50;18.00;;;;;;;6.46;50.26;99562.30;233196;1217;139586;-60
2022/04/13 01:36:58;;;;;;;32.30;17.70;;;;;;;6.41;50.01;99557.17;233260;1217;139183;-61
2022/04/13 01:42:01;;;;;;;26.90;16.60;;;;;;;6.36;50.42;99559.14;233398;1217;138851;-62
2022/04/13 01:47:11;;;;;;;30.10;16.90;;;;;;;6.30;50.02;99563.01;233352;1218;139618;-60
2022/04/13 01:52:14;;;;;;;28.70;16.50;;;;;;;6.26;50.48;99563.70;233268;1217;138705;-60
2022/04/13 01:57:19;;;;;;;30.80;17.00;;;;;;;6.22;50.17;99563.86;233354;1217;138499;-59
2022/04/13 02:02:22;;;;;;;27.20;16.50;;;;;;;6.15;50.49;99561.45;233287;1217;139087;-60
2022/04/13 02:07:26;;;;;;;30.40;16.20;;;;;;;6.10;50.84;99563.55;233270;1218;138919;-58
2022/04/13 02:12:29;;;;;;;31.40;17.00;;;;;;;6.04;50.96;99561.84;233330;1217;138694;-59
2022/04/13 02:17:32;;;;;;;30.00;15.10;;;;;;;5.99;50.63;99563.59;233458;1218;139556;-62
2022/04/13 02:22:35;;;;;;;26.80;16.50;;;;;;;5.94;51.16;99557.43;233252;1217;138635;-62
2022/04/13 02:27:48;;;;;;;30.00;16.40;;;;;;;5.90;50.95;99558.45;233344;1217;139688;-62
2022/04/13 02:32:51;;;;;;;27.80;16.30;;;;;;;5.86;51.06;99567.35;233167;1217;139248;-63
2022/04/13 02:37:54;;;;;;;25.80;16.10;;;;;;;5.83;50.75;99574.15;233283;1217;138853;-63
2022/04/13 02:42:57;;;;;;;30.60;16.90;;;;;;;5.82;50.96;99572.61;233302;1219;141571;-63
2022/04/13 02:48:01;;;;;;;27.70;16.40;;;;;;;5.81;50.92;99574.21;233445;1216;139160;-62
2022/04/13 02:53:05;;;;;;;28.70;16.30;;;;;;;5.78;51.07;99575.39;233229;1218;139698;-62
2022/04/13 02:58:08;;;;;;;27.70;16.70;;;;;;;5.74;51.11;99579.73;233243;1217;139005;-62
2022/04/13 03:03:11;;;;;;;25.10;15.20;;;;;;;5.72;51.16;99580.34;233267;1218;138658;-63
2022/04/13 03:08:14;;;;;;;25.30;15.70;;;;;;;5.67;51.35;99578.92;233376;1217;138865;-62
2022/04/13 03:13:17;;;;;;;25.80;15.20;;;;;;;5.61;51.56;99579.66;233242;1218;138770;-66
2022/04/13 03:18:20;;;;;;;27.30;15.00;;;;;;;5.59;51.47;99575.34;233269;1217;139735;-64
2022/04/13 03:23:23;;;;;;;27.10;15.10;;;;;;;5.56;51.60;99579.48;233123;1217;139454;-60
2022/04/13 03:28:26;;;;;;;25.60;14.70;;;;;;;5.52;51.68;99582.44;233279;1219;139102;-66
2022/04/13 03:33:30;;;;;;;24.20;14.50;;;;;;;5.48;51.75;99582.74;233222;1219;139043;-62
2022/04/13 03:38:32;;;;;;;26.70;14.90;;;;;;;5.47;51.71;99591.38;233303;1217;138721;-64
2022/04/13 03:43:35;;;;;;;24.80;14.00;;;;;;;5.44;51.73;99592.17;233191;1218;138834;-65
2022/04/13 03:48:38;;;;;;;27.50;15.00;;;;;;;5.40;51.95;99597.23;233304;1217;138900;-64
2022/04/13 03:53:41;;;;;;;25.70;14.60;;;;;;;5.35;51.74;99594.59;233186;1218;140861;-62
2022/04/13 03:58:44;;;;;;;25.80;14.00;;;;;;;5.29;52.31;99593.00;233377;1219;139581;-58
2022/04/13 04:03:47;;;;;;;27.10;14.70;;;;;;;5.26;52.17;99596.10;233208;1217;138762;-62
2022/04/13 04:08:50;;;;;;;27.30;14.20;;;;;;;5.22;52.21;99602.20;233289;1217;140243;-60
2022/04/13 04:13:53;;;;;;;24.70;13.80;;;;;;;5.17;52.33;99601.29;233273;1219;139295;-61
2022/04/13 04:18:56;;;;;;;23.70;13.80;;;;;;;5.15;52.61;99611.57;233337;1217;139482;-64
2022/04/13 04:23:59;;;;;;;23.30;14.20;;;;;;;5.15;52.60;99614.91;233275;1217;138407;-66
2022/04/13 04:29:02;;;;;;;23.80;13.60;;;;;;;5.15;52.75;99621.07;233436;1217;139370;-64
2022/04/13 04:34:05;;;;;;;23.20;13.10;;;;;;;5.19;52.53;99620.77;233246;1217;139033;-62
2022/04/13 04:39:08;;;;;;;22.90;12.90;;;;;;;5.19;52.55;99626.02;233272;1219;138825;-62
2022/04/13 04:44:11;;;;;;;26.50;13.40;;;;;;;5.26;52.93;99626.00;233324;1217;139556;-62
2022/04/13 04:49:14;;;;;;;19.10;12.10;;;;;;;5.34;52.79;99629.09;233360;1217;139179;-66
2022/04/13 04:54:17;;;;;;;23.70;13.40;;;;;;;5.43;52.78;99632.87;233249;1217;139091;-62
2022/04/13 04:59:20;;;;;;;23.20;12.90;;;;;;;5.47;52.64;99640.66;233238;1219;138976;-60
2022/04/13 05:04:23;;;;;;;24.80;12.70;;;;;;;5.53;52.66;99646.96;233343;1217;138931;-60
2022/04/13 05:09:28;;;;;;;25.00;12.20;;;;;;;5.61;52.64;99651.64;233230;1218;138710;-60
2022/04/13 05:14:37;;;;;;;22.30;12.60;;;;;;;5.71;52.79;99655.73;233263;1217;139402;-60
2022/04/13 05:19:40;;;;;;;22.40;13.10;;;;;;;5.84;52.80;99666.75;233177;1217;140017;-59
2022/04/13 05:24:44;;;;;;;23.60;12.70;;;;;;;5.95;52.70;99661.66;233058;1217;139387;-56
2022/04/13 05:29:47;;;;;;;20.60;11.90;;;;;;;6.06;52.67;99660.23;233212;1217;139145;-59
2022/04/13 05:34:50;;;;;;;22.00;11.70;;;;;;;6.18;52.50;99661.95;233272;1217;138355;-60
2022/04/13 05:39:53;;;;;;;19.40;11.90;;;;;;;6.32;52.69;99653.36;233221;1217;139676;-58
2022/04/13 05:44:57;;;;;;;23.80;11.90;;;;;;;6.46;52.50;99652.52;233163;1217;139855;-60
2022/04/13 05:50:00;;;;;;;18.00;11.10;;;;;;;6.59;52.48;99649.94;233403;1217;138909;-60
2022/04/13 05:55:03;;;;;;;19.90;10.30;;;;;;;6.72;52.41;99653.01;233148;1217;139758;-62
2022/04/13 06:00:10;;;;;;;18.60;10.90;;;;;;;6.84;52.31;99654.50;233295;1217;139541;-60
2022/04/13 06:05:14;;;;;;;14.40;9.80;;;;;;;6.96;52.04;99658.45;233505;1215;138896;-62
2022/04/13 06:10:19;;;;;;;18.40;10.70;;;;;;;7.06;52.24;99661.59;233311;1217;138881;-62
2022/04/13 06:15:22;;;;;;;19.80;11.30;;;;;;;7.18;52.30;99662.73;233191;1217;139171;-61
2022/04/13 06:20:26;;;;;;;18.00;10.80;;;;;;;7.30;52.01;99666.69;233218;1217;139627;-62
2022/04/13 06:25:29;;;;;;;20.60;11.60;;;;;;;7.43;52.35;99670.63;233278;1217;138950;-61
2022/04/13 06:30:32;;;;;;;23.50;12.60;;;;;;;7.54;52.13;99677.05;233269;1217;138792;-62
2022/04/13 06:35:35;;;;;;;25.70;13.10;;;;;;;7.71;52.14;99675.33;233411;1217;140106;-63
2022/04/13 06:40:38;;;;;;;33.40;15.90;;;;;;;7.87;51.93;99680.33;233244;1218;138994;-64
2022/04/13 06:45:43;;;;;;;23.70;12.90;;;;;;;8.03;51.53;99680.73;233312;1217;139072;-60
2022/04/13 06:50:47;;;;;;;30.20;12.50;;;;;;;8.18;51.40;99672.33;233213;1217;138974;-60
2022/04/13 06:55:50;;;;;;;25.60;13.20;;;;;;;8.35;50.99;99668.09;233240;1217;138668;-61
2022/04/13 07:00:53;;;;;;;32.40;13.50;;;;;;;8.48;50.79;99671.80;232930;1217;139327;-60
2022/04/13 07:05:56;;;;;;;26.50;13.60;;;;;;;8.60;50.75;99669.13;233201;1219;139798;-62
2022/04/13 07:10:59;;;;;;;28.90;13.40;;;;;;;8.74;50.55;99669.26;233279;1219;138730;-64
2022/04/13 07:16:02;;;;;;;29.20;13.20;;;;;;;8.90;50.58;99672.09;233428;1217;138942;-66
2022/04/13 07:21:06;;;;;;;54.20;28.80;;;;;;;9.09;50.33;99679.19;233254;1217;138980;-63
2022/04/13 07:26:09;;;;;;;35.40;15.50;;;;;;;9.30;50.11;99682.10;233337;1217;139734;-63
2022/04/13 07:31:13;;;;;;;27.10;12.40;;;;;;;9.53;49.89;99679.23;233348;1217;139690;-66
2022/04/13 07:36:16;;;;;;;26.10;12.40;;;;;;;9.70;49.56;99675.59;233295;1217;138854;-64
2022/04/13 07:41:19;;;;;;;24.00;13.20;;;;;;;9.84;49.38;99674.74;233428;1217;138929;-62
2022/04/13 07:46:22;;;;;;;41.60;18.20;;;;;;;10.07;49.90;99670.77;232911;1218;138956;-62
2022/04/13 07:51:25;;;;;;;28.50;12.60;;;;;;;10.30;48.96;99675.33;233199;1217;139053;-63
2022/04/13 07:56:29;;;;;;;71.50;42.40;;;;;;;10.45;48.66;99674.77;233309;1217;139289;-61
2022/04/13 08:01:32;;;;;;;37.20;14.50;;;;;;;10.65;48.36;99673.00;233201;1217;138970;-63
2022/04/13 08:06:35;;;;;;;17.80;9.00;;;;;;;10.80;48.27;99675.08;233234;1217;139327;-59
2022/04/13 08:11:39;;;;;;;20.20;9.30;;;;;;;10.95;47.54;99676.39;233338;1217;139093;-57
2022/04/13 08:16:42;;;;;;;15.70;7.40;;;;;;;11.06;47.62;99674.71;233249;1217;141980;-59
2022/04/13 08:21:45;;;;;;;13.30;6.50;;;;;;;11.19;47.54;99671.70;233251;1217;139216;-61
2022/04/13 08:26:48;;;;;;;13.40;6.90;;;;;;;11.30;46.79;99667.90;233250;1217;139222;-58
2022/04/13 08:31:51;;;;;;;16.80;11.40;;;;;;;11.46;47.67;99669.67;233149;1217;139072;-59
2022/04/13 08:36:54;;;;;;;10.30;5.80;;;;;;;11.82;47.63;99667.70;233208;1217;138777;-59
2022/04/13 08:42:03;;;;;;;9.00;5.00;;;;;;;11.95;46.70;99661.77;233068;1217;139747;-58
2022/04/13 08:47:12;;;;;;;55.30;34.40;;;;;;;12.05;46.56;99648.23;233405;1217;138706;-59
2022/04/13 08:52:19;;;;;;;84.50;32.10;;;;;;;12.20;47.03;99642.57;233153;1217;139055;-60
2022/04/13 08:57:28;;;;;;;23.10;8.20;;;;;;;12.36;46.55;99638.90;233177;1217;161635;-60
2022/04/13 09:02:47;;;;;;;8.20;4.10;;;;;;;12.50;46.10;99633.62;233200;1217;139451;-60
2022/04/13 09:08:05;;;;;;;10.50;4.20;;;;;;;12.68;46.07;99633.46;233194;1217;139209;-60
2022/04/13 09:13:10;;;;;;;77.50;58.10;;;;;;;12.93;46.01;99627.08;233287;1217;139586;-59
2022/04/13 09:18:13;;;;;;;13.60;8.10;;;;;;;13.30;47.44;99629.23;233241;1217;139474;-60
2022/04/13 09:23:16;;;;;;;10.70;5.10;;;;;;;13.62;46.18;99635.02;233307;1217;140071;-61
2022/04/13 09:28:20;;;;;;;7.80;4.40;;;;;;;13.71;45.16;99626.60;233197;1217;139200;-61
2022/04/13 09:33:25;;;;;;;10.20;4.50;;;;;;;13.80;45.17;99623.18;233121;1220;138442;-61
2022/04/13 09:38:35;;;;;;;12.00;4.90;;;;;;;13.90;45.18;99629.63;233167;1217;139410;-61
2022/04/13 09:43:38;;;;;;;32.60;16.50;;;;;;;14.01;46.16;99626.92;233104;1217;138755;-62
2022/04/13 09:48:42;;;;;;;18.00;11.20;;;;;;;15.53;50.52;99626.34;233271;1217;139030;-63
2022/04/13 09:53:45;;;;;;;10.90;6.50;;;;;;;16.97;49.18;99620.39;233240;1217;139353;-61
2022/04/13 09:58:48;;;;;;;8.80;6.70;;;;;;;17.78;47.50;99605.30;233374;1217;139167;-64
2022/04/13 10:03:57;;;;;;;9.80;5.70;;;;;;;18.32;45.98;99604.02;233298;1217;139203;-60
2022/04/13 10:09:06;;;;;;;9.50;4.60;;;;;;;18.71;44.70;99604.30;233332;1217;138878;-61
2022/04/13 10:14:09;;;;;;;9.00;4.80;;;;;;;18.69;43.21;99591.84;233123;1217;139231;-60
2022/04/13 10:19:19;;;;;;;105.70;89.30;;;;;;;18.42;41.92;99595.95;233253;1217;138769;-61
2022/04/13 10:24:25;;;;;;;9.90;5.80;;;;;;;18.12;41.15;99593.31;233205;1217;140002;-60
2022/04/13 10:29:29;;;;;;;8.40;4.40;;;;;;;17.85;40.66;99589.65;233414;1217;140150;-60
2022/04/13 10:34:37;;;;;;;7.10;3.90;;;;;;;17.62;40.25;99585.58;233192;1217;138612;-61
2022/04/13 10:39:41;;;;;;;7.10;4.60;;;;;;;17.48;39.89;99592.88;233194;1217;138805;-61
2022/04/13 10:44:54;;;;;;;6.70;3.40;;;;;;;17.38;40.23;99586.14;233219;1217;139457;-61
2022/04/13 10:50:00;;;;;;;6.20;3.40;;;;;;;17.39;39.84;99580.64;233314;1217;138777;-63
2022/04/13 10:55:07;;;;;;;22.70;11.40;;;;;;;17.46;40.39;99577.58;233295;1216;138867;-60
2022/04/13 11:00:11;;;;;;;13.00;5.70;;;;;;;17.62;40.11;99568.35;233114;1217;139442;-61
2022/04/13 11:05:14;;;;;;;9.60;4.80;;;;;;;17.84;40.25;99570.16;233246;1217;139587;-61
2022/04/13 11:10:19;;;;;;;14.50;5.00;;;;;;;18.03;39.34;99569.98;233232;1217;138877;-62
2022/04/13 11:15:39;;;;;;;5.90;3.30;;;;;;;18.09;38.76;99561.22;233056;1219;139461;-60
2022/04/13 11:21:01;;;;;;;7.90;3.50;;;;;;;18.13;38.69;99558.73;233244;1217;139134;-60
2022/04/13 11:26:04;;;;;;;9.40;4.10;;;;;;;18.20;38.12;99564.21;233084;1217;140880;-62
2022/04/13 11:31:09;;;;;;;6.50;3.70;;;;;;;18.34;38.80;99566.84;233205;1217;138668;-61
2022/04/13 11:36:12;;;;;;;10.40;4.00;;;;;;;18.54;38.77;99573.38;233207;1217;139677;-60
2022/04/13 11:41:35;;;;;;;9.90;4.20;;;;;;;18.84;38.93;99579.58;233213;1219;140399;-61
2022/04/13 11:46:39;;;;;;;61.30;34.50;;;;;;;19.09;39.97;99577.04;233307;1217;139654;-59
2022/04/13 11:51:43;;;;;;;14.70;8.70;;;;;;;19.32;38.72;99576.00;233089;1217;139100;-59
2022/04/13 11:56:51;;;;;;;7.10;4.20;;;;;;;19.35;37.92;99571.94;233168;1215;138941;-59
2022/04/13 12:01:55;;;;;;;15.20;9.80;;;;;;;19.43;38.11;99560.26;233182;1217;138993;-59
2022/04/13 12:06:59;;;;;;;12.30;7.40;;;;;;;19.70;38.69;99554.13;233161;1217;138907;-58
2022/04/13 12:12:03;;;;;;;8.30;4.90;;;;;;;20.03;38.60;99556.64;233178;1217;139439;-60
2022/04/13 12:17:06;;;;;;;35.00;22.10;;;;;;;20.26;38.34;99544.88;233088;1218;139087;-59
2022/04/13 12:22:17;;;;;;;18.10;8.60;;;;;;;20.47;37.81;99528.48;233075;1218;139639;-58
2022/04/13 12:27:20;;;;;;;17.40;8.20;;;;;;;20.72;37.46;99521.91;233183;1217;139358;-57
2022/04/13 12:32:23;;;;;;;14.20;6.30;;;;;;;20.99;37.30;99498.95;233229;1217;139193;-57
2022/04/13 12:37:26;;;;;;;12.50;6.00;;;;;;;21.22;36.74;99489.52;233058;1217;139041;-61
2022/04/13 12:42:29;;;;;;;7.80;4.70;;;;;;;21.41;36.39;99483.95;233108;1217;138951;-57
2022/04/13 12:47:32;;;;;;;5.60;3.50;;;;;;;21.55;36.12;99481.92;233239;1217;139024;-59
2022/04/13 12:52:35;;;;;;;6.70;4.30;;;;;;;21.77;35.94;99483.60;233084;1217;139497;-60
2022/04/13 12:57:38;;;;;;;26.50;17.70;;;;;;;21.89;35.02;99480.77;233110;1217;138494;-57
2022/04/13 13:02:50;;;;;;;10.10;5.00;;;;;;;21.89;34.64;99467.42;233241;1217;139245;-57
2022/04/13 13:07:55;;;;;;;10.20;5.10;;;;;;;22.07;34.60;99479.33;233136;1217;139907;-60
2022/04/13 13:13:17;;;;;;;8.10;4.90;;;;;;;22.28;34.34;99476.39;233025;1218;139136;-59
2022/04/13 13:18:21;;;;;;;9.10;4.20;;;;;;;22.35;34.17;99468.40;233165;1219;139078;-58
2022/04/13 13:23:26;;;;;;;6.50;4.20;;;;;;;22.17;33.52;99464.94;233234;1218;138983;-60
2022/04/13 13:28:31;;;;;;;6.60;3.50;;;;;;;22.00;33.33;99462.70;233202;1217;138927;-58
2022/04/13 13:33:37;;;;;;;6.70;4.00;;;;;;;21.99;33.25;99460.57;233147;1217;138764;-61
2022/04/13 13:38:46;;;;;;;14.20;8.90;;;;;;;21.86;33.07;99457.92;233160;1217;138765;-60
2022/04/13 13:43:49;;;;;;;7.40;4.50;;;;;;;21.76;33.08;99454.82;233169;1217;139041;-63
2022/04/13 13:48:53;;;;;;;8.10;4.30;;;;;;;21.66;32.83;99453.86;233121;1217;151022;-62
2022/04/13 13:53:56;;;;;;;6.30;3.80;;;;;;;21.53;32.32;99454.27;233168;1217;138897;-61
2022/04/13 13:58:59;;;;;;;12.20;4.00;;;;;;;21.31;32.18;99458.48;233194;1217;140782;-61
2022/04/13 14:04:02;;;;;;;8.90;3.90;;;;;;;21.09;32.28;99464.63;233166;1217;139205;-62
2022/04/13 14:09:08;;;;;;;7.60;4.20;;;;;;;20.80;32.12;99458.98;233105;1217;138577;-61
2022/04/13 14:14:11;;;;;;;7.00;3.90;;;;;;;20.49;32.11;99453.14;233190;1217;139597;-60
2022/04/13 14:19:14;;;;;;;6.20;3.90;;;;;;;20.29;32.28;99450.58;233173;1217;138855;-59
2022/04/13 14:24:19;;;;;;;6.70;3.90;;;;;;;20.16;32.32;99452.38;233125;1217;139804;-61
2022/04/13 14:29:22;;;;;;;7.40;3.90;;;;;;;20.01;32.28;99451.73;233172;1217;138912;-58
2022/04/13 14:34:26;;;;;;;9.10;4.20;;;;;;;19.84;32.30;99447.07;233260;1217;138983;-64
2022/04/13 14:39:31;;;;;;;7.90;3.90;;;;;;;19.70;32.72;99440.84;233169;1217;138900;-59
2022/04/13 14:44:34;;;;;;;7.40;3.90;;;;;;;19.60;32.60;99446.63;233174;1217;139165;-61
2022/04/13 14:49:38;;;;;;;9.10;4.00;;;;;;;19.41;32.38;99450.45;233302;1217;139174;-61
2022/04/13 14:54:41;;;;;;;9.00;4.40;;;;;;;19.25;32.41;99458.80;233150;1217;138912;-61
2022/04/13 14:59:44;;;;;;;12.60;7.70;;;;;;;19.15;32.87;99458.67;233233;1217;139325;-62
2022/04/13 15:04:47;;;;;;;10.20;5.80;;;;;;;19.14;33.43;99456.98;233129;1217;139013;-61
2022/04/13 15:09:51;;;;;;;12.00;5.50;;;;;;;19.15;33.23;99456.35;233068;1217;139430;-60
2022/04/13 15:14:54;;;;;;;7.50;4.70;;;;;;;19.04;32.92;99449.39;233152;1219;139604;-62
2022/04/13 15:19:57;;;;;;;11.10;4.90;;;;;;;18.94;33.13;99447.05;233089;1217;138682;-62
2022/04/13 15:25:00;;;;;;;6.90;5.10;;;;;;;18.86;33.31;99451.59;233198;1217;139742;-59
2022/04/13 15:30:03;;;;;;;10.90;4.30;;;;;;;18.77;33.14;99453.24;233210;1217;138982;-59
2022/04/13 15:35:08;;;;;;;9.20;4.50;;;;;;;18.61;32.80;99449.85;233366;1217;139188;-61
2022/04/13 15:40:12;;;;;;;13.80;5.40;;;;;;;18.43;32.85;99455.38;233090;1217;139161;-58
2022/04/13 15:45:15;;;;;;;621.70;500.80;;;;;;;18.32;33.05;99461.35;233133;1217;139208;-60
2022/04/13 15:50:18;;;;;;;13.70;10.50;;;;;;;18.10;32.23;99454.61;233255;1217;140004;-60
2022/04/13 15:55:23;;;;;;;10.30;5.70;;;;;;;17.91;32.24;99459.17;233206;1217;139085;-61
2022/04/13 16:00:26;;;;;;;10.60;7.80;;;;;;;17.69;32.18;99460.82;233082;1217;138964;-61
2022/04/13 16:05:36;;;;;;;15.40;10.00;;;;;;;17.63;33.30;99458.14;233363;1217;140178;-61
2022/04/13 16:10:43;;;;;;;8.90;4.80;;;;;;;17.57;32.56;99460.93;232958;1217;138971;-58
2022/04/13 16:15:48;;;;;;;9.50;5.10;;;;;;;17.37;32.54;99459.70;233065;1218;139888;-62
2022/04/13 16:20:51;;;;;;;10.10;5.20;;;;;;;17.15;32.36;99458.17;233073;1217;140288;-60
2022/04/13 16:25:55;;;;;;;11.60;5.90;;;;;;;16.94;32.43;99465.59;233113;1217;140474;-60
2022/04/13 16:30:58;;;;;;;44.90;30.40;;;;;;;16.76;32.96;99462.65;233158;1217;139553;-60
2022/04/13 16:36:02;;;;;;;16.80;11.40;;;;;;;16.71;33.55;99464.41;233471;1217;139177;-60
2022/04/13 16:41:05;;;;;;;13.00;6.40;;;;;;;16.63;33.22;99469.16;233227;1217;139494;-57
2022/04/13 16:46:28;;;;;;;14.60;7.10;;;;;;;16.47;33.52;99471.86;233269;1217;139170;-60
2022/04/13 16:51:31;;;;;;;16.00;6.80;;;;;;;16.31;33.41;99476.58;233169;1218;138972;-61
2022/04/13 16:56:34;;;;;;;12.40;6.80;;;;;;;16.17;33.32;99481.44;233224;1217;139281;-59
2022/04/13 17:01:39;;;;;;;21.00;7.10;;;;;;;16.04;33.48;99481.36;233018;1217;139638;-60
2022/04/13 17:06:44;;;;;;;21.70;6.80;;;;;;;15.91;33.47;99482.52;233199;1217;139142;-60
2022/04/13 17:11:47;;;;;;;17.60;6.70;;;;;;;15.80;33.25;99481.26;233320;1217;138918;-62
2022/04/13 17:16:49;;;;;;;21.00;7.30;;;;;;;15.69;33.24;99483.31;233110;1217;138602;-60
2022/04/13 17:21:53;;;;;;;16.80;7.80;;;;;;;15.56;33.22;99481.06;233173;1217;138709;-59
2022/04/13 17:26:56;;;;;;;601.70;478.60;;;;;;;15.44;33.34;99478.91;233110;1217;139365;-60
2022/04/13 17:31:59;;;;;;;25.00;12.90;;;;;;;15.42;33.65;99482.10;232773;1217;139993;-59
2022/04/13 17:37:03;;;;;;;26.70;9.10;;;;;;;15.37;33.41;99478.53;233212;1217;139943;-62
2022/04/13 17:42:06;;;;;;;23.80;8.70;;;;;;;15.24;33.26;99477.70;233262;1217;139104;-60
2022/04/13 17:47:10;;;;;;;14.90;7.90;;;;;;;15.14;33.03;99485.81;233212;1217;140334;-61
2022/04/13 17:52:13;;;;;;;19.20;8.80;;;;;;;14.99;33.09;99482.06;233170;1218;139461;-60
2022/04/13 17:57:16;;;;;;;17.90;8.40;;;;;;;14.86;33.03;99480.34;233170;1218;140595;-62
2022/04/13 18:02:19;;;;;;;18.20;9.40;;;;;;;14.74;33.35;99481.41;233132;1218;138954;-59
2022/04/13 18:07:23;;;;;;;18.40;8.70;;;;;;;14.62;33.48;99484.96;233154;1218;138685;-61
2022/04/13 18:12:26;;;;;;;19.50;9.70;;;;;;;14.51;33.21;99489.64;233161;1219;139283;-62
2022/04/13 18:17:29;;;;;;;51.80;34.50;;;;;;;14.41;33.81;99492.45;233188;1217;139753;-59
2022/04/13 18:22:32;;;;;;;29.50;17.40;;;;;;;14.56;34.63;99502.50;233094;1217;139810;-59
2022/04/13 18:27:36;;;;;;;25.80;12.60;;;;;;;14.54;34.32;99508.17;233109;1217;139128;-60
2022/04/13 18:32:39;;;;;;;24.20;13.00;;;;;;;14.40;34.03;99515.20;233106;1217;139383;-59
2022/04/13 18:37:42;;;;;;;27.70;13.70;;;;;;;14.26;33.83;99522.64;233091;1217;139801;-58
2022/04/13 18:42:47;;;;;;;29.90;13.40;;;;;;;14.13;34.14;99526.75;233001;1217;139501;-60
2022/04/13 18:47:50;;;;;;;27.80;13.70;;;;;;;14.01;34.14;99531.84;233157;1217;139071;-59
2022/04/13 18:52:53;;;;;;;26.70;13.90;;;;;;;13.90;34.54;99536.88;233130;1217;139613;-61
2022/04/13 18:57:56;;;;;;;20.80;12.70;;;;;;;13.76;34.50;99532.27;233271;1217;139515;-60
2022/04/13 19:03:00;;;;;;;27.80;13.50;;;;;;;13.64;34.82;99532.03;233103;1217;139071;-59
2022/04/13 19:08:04;;;;;;;27.50;13.80;;;;;;;13.53;35.13;99536.00;233108;1219;139913;-60
2022/04/13 19:13:08;;;;;;;33.60;14.70;;;;;;;13.44;35.09;99536.73;233114;1217;140089;-60
2022/04/13 19:18:13;;;;;;;235.10;172.80;;;;;;;13.53;36.62;99537.39;233269;1218;139434;-60
2022/04/13 19:23:17;;;;;;;32.80;16.70;;;;;;;13.79;36.73;99534.23;233210;1217;140208;-57
2022/04/13 19:28:21;;;;;;;26.00;14.20;;;;;;;13.70;36.28;99528.23;233262;1215;139506;-57
2022/04/13 19:33:24;;;;;;;23.80;12.90;;;;;;;13.55;36.15;99528.69;233114;1217;139701;-59
2022/04/13 19:38:28;;;;;;;25.90;13.00;;;;;;;13.40;36.20;99526.11;233212;1217;139479;-59
2022/04/13 19:43:32;;;;;;;23.90;12.90;;;;;;;13.27;36.27;99534.27;233202;1217;139662;-59
2022/04/13 19:48:36;;;;;;;26.90;13.40;;;;;;;13.18;36.39;99528.25;233187;1219;139550;-59
2022/04/13 19:53:39;;;;;;;25.40;13.80;;;;;;;13.08;37.02;99537.23;233221;1217;139313;-59
2022/04/13 19:58:42;;;;;;;22.80;12.80;;;;;;;13.01;37.00;99537.37;233277;1217;139357;-60
2022/04/13 20:03:46;;;;;;;22.70;12.70;;;;;;;12.94;36.49;99542.06;233172;1217;139041;-58
2022/04/13 20:08:49;;;;;;;26.20;13.70;;;;;;;12.91;36.50;99543.90;233241;1218;139135;-59
2022/04/13 20:13:52;;;;;;;26.90;13.60;;;;;;;12.86;36.89;99543.65;233134;1219;139795;-58
2022/04/13 20:18:57;;;;;;;22.80;12.40;;;;;;;12.80;37.14;99538.69;233113;1217;139208;-60
2022/04/13 20:24:00;;;;;;;25.30;14.00;;;;;;;12.72;37.26;99542.58;233182;1217;139570;-60
2022/04/13 20:29:03;;;;;;;25.60;14.50;;;;;;;12.65;37.51;99543.01;233116;1217;140004;-60
2022/04/13 20:34:06;;;;;;;29.50;16.00;;;;;;;12.59;37.57;99543.25;233112;1217;140635;-59
2022/04/13 20:39:09;;;;;;;32.50;16.40;;;;;;;12.52;37.75;99542.91;233191;1217;139588;-62
2022/04/13 20:44:12;;;;;;;26.80;14.50;;;;;;;12.46;37.76;99548.60;233186;1217;139305;-61
2022/04/13 20:49:15;;;;;;;28.30;13.70;;;;;;;12.42;37.82;99543.03;233216;1217;141252;-61
2022/04/13 20:54:20;;;;;;;24.10;13.40;;;;;;;12.38;37.74;99539.02;233310;1217;139385;-59
2022/04/13 20:59:24;;;;;;;22.30;13.10;;;;;;;12.35;37.82;99536.14;233196;1217;140002;-60
2022/04/13 21:04:27;;;;;;;23.90;12.50;;;;;;;12.30;37.86;99536.83;233184;1217;139879;-59
2022/04/13 21:09:30;;;;;;;26.20;12.20;;;;;;;12.26;37.71;99536.37;233232;1217;139837;-57
2022/04/13 21:14:33;;;;;;;28.00;13.50;;;;;;;12.22;37.88;99535.71;233165;1217;140238;-60
2022/04/13 21:19:36;;;;;;;22.10;11.50;;;;;;;12.18;38.02;99531.46;233254;1217;139787;-60
2022/04/13 21:24:44;;;;;;;17.60;10.30;;;;;;;12.15;37.88;99535.39;233084;1219;139318;-59
2022/04/13 21:29:47;;;;;;;18.10;10.20;;;;;;;12.14;37.95;99534.77;233255;1217;139701;-58
2022/04/13 21:34:50;;;;;;;20.00;10.30;;;;;;;12.15;37.89;99531.12;233150;1217;139227;-57
2022/04/13 21:39:53;;;;;;;18.00;8.90;;;;;;;12.15;37.95;99530.45;233246;1219;139387;-60
2022/04/13 21:44:56;;;;;;;15.60;8.90;;;;;;;12.12;37.84;99530.28;233183;1217;139191;-59
2022/04/13 21:49:59;;;;;;;17.00;9.10;;;;;;;12.07;37.69;99530.02;233233;1217;139601;-58
2022/04/13 21:55:03;;;;;;;20.60;10.20;;;;;;;12.04;37.62;99529.99;233300;1217;140086;-60
2022/04/13 22:00:06;;;;;;;14.70;9.00;;;;;;;12.03;37.32;99527.58;233380;1217;139784;-61
2022/04/13 22:05:12;;;;;;;18.50;9.30;;;;;;;12.04;37.64;99520.24;233287;1217;138845;-60
2022/04/13 22:10:15;;;;;;;16.10;8.80;;;;;;;12.01;37.34;99517.06;233279;1217;139288;-58
2022/04/13 22:15:18;;;;;;;18.80;8.90;;;;;;;11.93;37.79;99519.65;233334;1217;138865;-61
2022/04/13 22:20:22;;;;;;;18.30;8.90;;;;;;;11.84;37.86;99518.03;233201;1217;139813;-60
2022/04/13 22:25:25;;;;;;;16.30;9.00;;;;;;;11.79;37.98;99513.00;233193;1217;139422;-62
2022/04/13 22:30:28;;;;;;;16.70;9.10;;;;;;;11.73;37.66;99513.20;233274;1217;139154;-61
2022/04/13 22:35:32;;;;;;;17.00;9.10;;;;;;;11.70;37.78;99524.23;233275;1217;139318;-60
2022/04/13 22:40:35;;;;;;;17.90;9.20;;;;;;;11.65;38.29;99521.83;233320;1217;139199;-60
2022/04/13 22:45:38;;;;;;;18.10;8.90;;;;;;;11.59;38.27;99516.48;233230;1218;138877;-58
2022/04/13 22:50:41;;;;;;;21.20;9.30;;;;;;;11.51;38.37;99509.66;233216;1218;139660;-60
2022/04/13 22:55:44;;;;;;;17.10;9.60;;;;;;;11.46;38.17;99504.95;233211;1217;139569;-58
2022/04/13 23:00:47;;;;;;;17.20;9.20;;;;;;;11.41;38.13;99504.73;233337;1217;139397;-60